Time;durP1;ratioP1;P1;durP2;ratioP2;P2;SDS_P1;SDS_P2;PMS_P1;PMS_P2;Temp;Humidity;BMP_temperature;BMP_pressure;BME280_temperature;BME280_humidity;BME280_pressure;Samples;Min_cycle;Max_cycle;Signal;HPM_P1;HPM_P2
2022/03/11 00:01:19;;;;;;;0.20;0.20;;;;;;;-1.39;52.99;96047.38;5132036;28;20960;-52
2022/03/11 00:03:47;;;;;;;0.20;0.20;;;;;;;-1.14;51.39;96041.94;5131768;28;20431;-51
2022/03/11 00:06:16;;;;;;;6.43;0.57;;;;;;;-1.42;67.74;96052.94;5132175;28;20450;-52
2022/03/11 00:08:44;;;;;;;0.20;0.20;;;;;;;-0.39;61.23;96040.69;5131890;28;20891;-52
2022/03/11 00:11:13;;;;;;;0.20;0.20;;;;;;;-0.91;50.15;96032.25;5132443;28;20427;-52
2022/03/11 00:13:42;;;;;;;1.53;0.40;;;;;;;-1.52;50.69;96039.38;5132111;27;20847;-52
2022/03/11 00:16:12;;;;;;;0.20;0.20;;;;;;;-1.56;49.53;96032.13;5135688;27;20454;-52
2022/03/11 00:18:40;;;;;;;0.20;0.20;;;;;;;-1.71;49.29;96029.50;5135629;27;20819;-52
2022/03/11 00:21:12;;;;;;;0.20;0.10;;;;;;;-1.33;55.22;96020.69;5135836;27;20996;-52
2022/03/11 00:23:40;;;;;;;0.20;0.20;;;;;;;-1.23;49.27;96019.59;5135660;27;20960;-52
2022/03/11 00:26:09;;;;;;;0.20;0.20;;;;;;;-1.80;49.06;96016.75;5135729;27;20458;-52
2022/03/11 00:28:38;;;;;;;0.20;0.20;;;;;;;-1.02;61.27;95996.28;5135707;27;20917;-52
2022/03/11 00:31:07;;;;;;;0.20;0.20;;;;;;;-0.87;48.85;96018.69;5135997;27;20431;-52
2022/03/11 00:33:37;;;;;;;0.20;0.20;;;;;;;-0.80;48.06;96013.56;5135066;27;20509;-51
2022/03/11 00:36:06;;;;;;;0.20;0.20;;;;;;;-0.68;48.70;96006.91;5135188;27;20930;-52
2022/03/11 00:38:39;;;;;;;0.20;0.20;;;;;;;-0.23;49.85;96008.41;5135038;27;20426;-52
2022/03/11 00:41:07;;;;;;;0.20;0.20;;;;;;;-0.75;46.40;96006.03;5135413;27;20513;-52
2022/03/11 00:43:36;;;;;;;0.20;0.20;;;;;;;-1.06;46.34;96008.84;5135128;27;20438;-52
2022/03/11 00:46:04;;;;;;;0.20;0.20;;;;;;;-0.97;49.71;96007.78;5135201;27;20811;-52
2022/03/11 00:48:33;;;;;;;0.20;0.20;;;;;;;-1.12;47.15;96017.38;5134822;27;20487;-52
2022/03/11 00:51:03;;;;;;;0.20;0.20;;;;;;;-0.99;47.14;96019.34;5135157;27;20435;-51
2022/03/11 00:53:31;;;;;;;0.20;0.20;;;;;;;-0.71;47.95;96010.69;5135132;27;20495;-52
2022/03/11 00:56:00;;;;;;;0.20;0.20;;;;;;;-1.37;47.13;96016.03;5135154;27;20434;-51
2022/03/11 00:58:28;;;;;;;0.20;0.20;;;;;;;-2.16;48.81;96011.38;5134885;27;20463;-52
2022/03/11 01:00:56;;;;;;;0.20;0.20;;;;;;;-2.40;50.54;96016.75;5134997;27;20426;-52
2022/03/11 01:03:25;;;;;;;0.20;0.20;;;;;;;-1.65;50.73;96012.41;5134987;27;20418;-52
2022/03/11 01:05:53;;;;;;;0.20;0.20;;;;;;;-1.46;58.25;96004.88;5135033;27;20801;-52
2022/03/11 01:08:23;;;;;;;0.20;0.20;;;;;;;-2.12;50.19;96010.03;5134899;27;20469;-52
2022/03/11 01:10:52;;;;;;;0.20;0.20;;;;;;;-1.41;51.07;95991.34;5134430;27;20491;-52
2022/03/11 01:13:20;;;;;;;1.73;1.33;;;;;;;-1.37;49.24;95996.00;5135272;27;20511;-52
2022/03/11 01:15:49;;;;;;;0.20;0.20;;;;;;;-0.76;63.80;95986.22;5134317;27;20900;-51
2022/03/11 01:18:17;;;;;;;0.20;0.20;;;;;;;-0.72;51.96;95995.25;5135058;27;20923;-51
2022/03/11 01:20:45;;;;;;;0.20;0.20;;;;;;;-1.26;49.57;95999.19;5134444;27;20507;-51
2022/03/11 01:23:14;;;;;;;0.20;0.10;;;;;;;-1.25;50.17;96004.19;5134938;27;20832;-51
2022/03/11 01:25:44;;;;;;;0.20;0.20;;;;;;;-2.18;50.05;96008.94;5134601;27;20431;-51
2022/03/11 01:28:13;;;;;;;0.20;0.20;;;;;;;-2.41;51.10;96010.72;5134576;27;20505;-51
2022/03/11 01:30:42;;;;;;;0.20;0.20;;;;;;;-3.10;51.62;95941.56;5133911;27;20987;-51
2022/03/11 01:33:10;;;;;;;0.20;0.20;;;;;;;-2.42;51.90;96018.66;5134466;27;20926;-52
2022/03/11 01:35:39;;;;;;;0.20;0.20;;;;;;;-1.96;54.76;96012.50;5133749;27;20919;-52
2022/03/11 01:38:07;;;;;;;0.20;0.20;;;;;;;-1.79;51.16;96019.16;5134524;27;20446;-52
2022/03/11 01:40:36;;;;;;;0.20;0.20;;;;;;;-2.45;52.46;96017.22;5134154;27;20427;-52
2022/03/11 01:43:12;;;;;;;0.20;0.20;;;;;;;-2.44;52.28;96021.44;5133644;27;20497;-52
2022/03/11 01:45:41;;;;;;;0.20;0.20;;;;;;;-1.48;58.58;96006.88;5134120;27;20957;-51
2022/03/11 01:48:10;;;;;;;0.20;0.20;;;;;;;-1.07;60.43;96009.03;5134263;27;20430;-51
2022/03/11 01:50:40;;;;;;;0.27;0.20;;;;;;;-1.30;53.18;96022.13;5133792;27;21134;-51
2022/03/11 01:53:10;;;;;;;0.20;0.20;;;;;;;-1.26;51.98;96025.97;5133702;27;20427;-51
2022/03/11 01:55:39;;;;;;;0.20;0.20;;;;;;;-1.96;51.42;96026.31;5133983;27;20879;-52
2022/03/11 01:58:09;;;;;;;0.20;0.20;;;;;;;-2.08;52.01;96038.09;5133616;27;20431;-52
2022/03/11 02:00:40;;;;;;;0.20;0.20;;;;;;;-2.11;55.65;96029.81;5133778;27;20415;-52
2022/03/11 02:03:09;;;;;;;0.20;0.20;;;;;;;-1.15;56.45;96027.31;5133202;27;20431;-51
2022/03/11 02:05:37;;;;;;;0.20;0.10;;;;;;;-1.65;49.52;96034.00;5133844;27;20483;-51
2022/03/11 02:08:06;;;;;;;0.20;0.17;;;;;;;-1.69;49.71;96035.31;5133318;27;20471;-52
2022/03/11 02:10:35;;;;;;;0.20;0.20;;;;;;;-1.63;49.78;96034.63;5133775;27;20415;-51
2022/03/11 02:13:06;;;;;;;0.30;0.30;;;;;;;-1.99;49.41;96036.22;5133149;27;20470;-52
2022/03/11 02:15:35;;;;;;;0.20;0.20;;;;;;;-2.36;50.87;96036.16;5133090;27;20536;-51
2022/03/11 02:18:04;;;;;;;0.20;0.20;;;;;;;-2.84;50.65;96030.25;5133494;27;20433;-52
2022/03/11 02:20:33;;;;;;;0.20;0.20;;;;;;;-3.06;51.84;96028.38;5133500;27;20916;-52
2022/03/11 02:23:02;;;;;;;0.20;0.20;;;;;;;-3.24;52.01;96031.22;5133487;27;20469;-52
2022/03/11 02:25:32;;;;;;;0.53;0.53;;;;;;;-3.68;53.46;96029.22;5132915;27;20469;-52
2022/03/11 02:28:00;;;;;;;0.40;0.40;;;;;;;-3.51;54.05;96016.06;5133230;27;20896;-52
2022/03/11 02:30:29;;;;;;;0.20;0.20;;;;;;;-3.39;53.14;96025.09;5133413;27;20458;-51
2022/03/11 02:32:57;;;;;;;0.47;0.47;;;;;;;-3.29;54.41;96017.94;5133534;27;20434;-51
2022/03/11 02:35:26;;;;;;;0.30;0.20;;;;;;;-3.23;54.60;96019.06;5133184;27;20549;-52
2022/03/11 02:37:54;;;;;;;0.50;0.50;;;;;;;-3.56;53.67;96020.09;5133020;27;20430;-51
2022/03/11 02:40:23;;;;;;;0.20;0.20;;;;;;;-3.27;53.48;96020.38;5133627;27;20682;-51
2022/03/11 02:42:52;;;;;;;0.20;0.20;;;;;;;-3.19;52.65;96022.94;5133168;27;20451;-51
2022/03/11 02:45:21;;;;;;;0.20;0.10;;;;;;;-1.79;66.09;96021.78;5133222;27;20448;-52
2022/03/11 02:47:49;;;;;;;0.20;0.20;;;;;;;-2.61;50.87;96027.72;5133179;27;20466;-51
2022/03/11 02:50:17;;;;;;;0.20;0.20;;;;;;;-1.48;56.23;96032.88;5133027;27;20509;-51
2022/03/11 02:52:46;;;;;;;0.20;0.20;;;;;;;-1.22;48.92;96021.22;5132972;27;20946;-51
2022/03/11 02:55:14;;;;;;;0.20;0.20;;;;;;;-1.37;47.99;96035.00;5133028;27;20455;-51
2022/03/11 02:57:42;;;;;;;0.20;0.20;;;;;;;-1.45;47.96;96034.28;5132647;27;20648;-51
2022/03/11 03:00:13;;;;;;;0.20;0.17;;;;;;;-1.77;47.94;96030.19;5132877;27;20854;-51
2022/03/11 03:02:42;;;;;;;0.20;0.20;;;;;;;-1.70;47.42;96031.13;5132912;27;20419;-51
2022/03/11 03:05:10;;;;;;;0.20;0.20;;;;;;;-2.33;46.16;96030.63;5132713;27;20440;-52
2022/03/11 03:07:39;;;;;;;0.20;0.10;;;;;;;-2.09;47.76;96030.44;5132603;27;20907;-51
2022/03/11 03:10:10;;;;;;;0.20;0.20;;;;;;;-2.40;47.11;96038.28;5132403;27;20419;-51
2022/03/11 03:12:39;;;;;;;0.20;0.20;;;;;;;-2.15;49.71;95955.88;5132857;28;20450;-51
2022/03/11 03:15:08;;;;;;;0.20;0.20;;;;;;;-1.96;58.49;96030.69;5132415;27;20487;-51
2022/03/11 03:17:38;;;;;;;0.20;0.10;;;;;;;-2.01;49.36;96035.59;5132745;28;20430;-51
2022/03/11 03:20:09;;;;;;;0.30;0.20;;;;;;;-2.10;49.77;96032.25;5132688;28;20426;-52
2022/03/11 03:22:37;;;;;;;0.30;0.20;;;;;;;-1.95;48.70;96030.50;5132693;28;20462;-52
2022/03/11 03:25:08;;;;;;;0.20;0.20;;;;;;;-2.08;49.13;96032.09;5132229;28;20477;-52
2022/03/11 03:27:37;;;;;;;0.20;0.20;;;;;;;-2.19;51.02;96027.28;5132857;28;20450;-51
2022/03/11 03:30:07;;;;;;;0.30;0.20;;;;;;;-1.92;49.48;96030.16;5131736;28;20466;-52
2022/03/11 03:32:35;;;;;;;0.40;0.40;;;;;;;-1.82;49.33;96026.53;5131874;27;20422;-52
2022/03/11 03:35:05;;;;;;;0.20;0.20;;;;;;;-1.19;50.36;96033.88;5132498;28;20474;-52
2022/03/11 03:37:34;;;;;;;0.20;0.10;;;;;;;-0.85;47.75;96024.53;5132395;28;20469;-52
2022/03/11 03:40:03;;;;;;;0.20;0.20;;;;;;;-1.07;46.09;96025.44;5132644;28;20431;-51
2022/03/11 03:42:31;;;;;;;0.37;0.37;;;;;;;-0.69;47.46;96029.53;5132529;28;20458;-51
2022/03/11 03:45:00;;;;;;;0.20;0.20;;;;;;;-0.65;45.88;96020.38;5132226;28;20491;-52
2022/03/11 03:47:28;;;;;;;0.20;0.20;;;;;;;-0.63;44.24;96022.00;5132547;28;20426;-51
2022/03/11 03:49:57;;;;;;;0.27;0.23;;;;;;;-0.31;45.07;96022.34;5133185;27;20466;-52
2022/03/11 03:52:27;;;;;;;0.20;0.20;;;;;;;-1.24;45.89;96024.03;5136141;27;20976;-51
2022/03/11 03:54:56;;;;;;;0.20;0.20;;;;;;;-0.91;44.93;96017.44;5135863;27;20430;-52
2022/03/11 03:57:27;;;;;;;0.20;0.20;;;;;;;-0.92;48.20;96022.84;5135951;27;20422;-52
2022/03/11 03:59:55;;;;;;;0.20;0.10;;;;;;;-0.57;44.97;96024.66;5135669;27;20470;-52
2022/03/11 04:02:23;;;;;;;0.30;0.20;;;;;;;-0.53;44.23;96022.50;5135937;27;20466;-52
2022/03/11 04:04:52;;;;;;;0.20;0.20;;;;;;;-0.24;44.67;96028.44;5136279;27;20431;-52
2022/03/11 04:07:20;;;;;;;0.83;0.83;;;;;;;-0.66;44.51;96033.59;5135511;27;20462;-52
2022/03/11 04:09:50;;;;;;;0.20;0.20;;;;;;;-1.30;44.43;96041.13;5135315;27;20434;-51
2022/03/11 04:12:18;;;;;;;3.57;2.43;;;;;;;-1.35;45.96;96034.84;5135516;27;20479;-52
2022/03/11 04:14:47;;;;;;;0.20;0.20;;;;;;;-2.41;47.70;96039.28;5135484;27;20934;-52
2022/03/11 04:17:15;;;;;;;0.20;0.20;;;;;;;-2.55;49.55;96040.00;5134434;27;20568;-52
2022/03/11 04:19:44;;;;;;;0.20;0.20;;;;;;;-3.11;49.91;96046.22;5135886;27;20885;-52
2022/03/11 04:22:12;;;;;;;0.20;0.20;;;;;;;-3.18;50.98;96041.88;5135244;27;20771;-52
2022/03/11 04:24:41;;;;;;;0.30;0.20;;;;;;;-3.30;52.37;96031.88;5134807;27;20414;-52
2022/03/11 04:27:11;;;;;;;0.20;0.20;;;;;;;-3.59;52.18;96047.16;5134700;27;20426;-52
2022/03/11 04:29:39;;;;;;;0.20;0.20;;;;;;;-3.42;54.48;96045.38;5135244;27;20505;-52
2022/03/11 04:32:08;;;;;;;0.20;0.20;;;;;;;-4.07;55.34;96053.16;5134964;27;20471;-51
2022/03/11 04:34:36;;;;;;;0.43;0.43;;;;;;;-4.35;56.56;96057.00;5134911;27;21126;-51
2022/03/11 04:37:05;;;;;;;0.20;0.20;;;;;;;-4.28;57.53;96055.44;5134989;27;20509;-51
2022/03/11 04:39:34;;;;;;;0.20;0.20;;;;;;;-4.40;57.52;96051.50;5135124;27;20435;-51
2022/03/11 04:42:06;;;;;;;0.50;0.50;;;;;;;-3.79;56.91;96050.28;5134715;27;20514;-51
2022/03/11 04:44:36;;;;;;;0.30;0.30;;;;;;;-3.60;53.81;96049.94;5134921;27;20431;-51
2022/03/11 04:47:05;;;;;;;0.30;0.20;;;;;;;-6.12;52.07;95564.25;5134591;27;20418;-51
2022/03/11 04:49:33;;;;;;;0.20;0.20;;;;;;;-2.43;50.65;96058.59;5134395;27;20521;-52
2022/03/11 04:52:02;;;;;;;0.20;0.20;;;;;;;-2.49;49.82;96060.09;5134778;27;20499;-52
2022/03/11 04:54:30;;;;;;;0.40;0.40;;;;;;;-2.29;48.93;96053.47;5134935;27;20426;-52
2022/03/11 04:56:58;;;;;;;5.23;1.07;;;;;;;-2.25;47.90;96044.34;5134592;27;21041;-52
2022/03/11 04:59:27;;;;;;;0.40;0.30;;;;;;;-2.64;47.52;96051.41;5134436;27;20479;-52
2022/03/11 05:01:56;;;;;;;0.20;0.20;;;;;;;-3.02;46.86;96060.00;5134314;27;20423;-52
2022/03/11 05:04:25;;;;;;;0.20;0.20;;;;;;;-2.32;46.21;96055.59;5133959;27;20419;-52
2022/03/11 05:06:53;;;;;;;0.60;0.60;;;;;;;-2.40;45.75;96063.44;5134439;27;20505;-52
2022/03/11 05:09:22;;;;;;;0.20;0.20;;;;;;;-2.31;45.40;96067.59;5134153;27;20427;-52
2022/03/11 05:11:50;;;;;;;0.20;0.20;;;;;;;-2.14;45.37;96067.34;5134008;27;20419;-52
2022/03/11 05:14:18;;;;;;;0.20;0.20;;;;;;;-2.69;46.03;96077.88;5133720;27;20513;-52
2022/03/11 05:16:47;;;;;;;0.30;0.20;;;;;;;-2.77;46.58;96070.09;5134585;27;20462;-52
2022/03/11 05:19:17;;;;;;;0.30;0.20;;;;;;;-2.22;45.96;96066.56;5134190;27;20509;-52
2022/03/11 05:21:45;;;;;;;0.30;0.20;;;;;;;-2.95;46.21;96046.19;5133851;27;20477;-52
2022/03/11 05:24:13;;;;;;;0.30;0.30;;;;;;;-2.66;45.65;96059.34;5133759;27;20501;-52
2022/03/11 05:26:42;;;;;;;0.20;0.20;;;;;;;-2.27;46.21;96077.47;5133947;27;20423;-52
2022/03/11 05:29:11;;;;;;;0.20;0.20;;;;;;;-2.55;45.36;96071.13;5133781;27;20454;-52
2022/03/11 05:31:39;;;;;;;0.30;0.20;;;;;;;-2.25;45.04;96077.31;5133541;27;20411;-52
2022/03/11 05:34:08;;;;;;;0.20;0.10;;;;;;;-2.44;46.36;96070.75;5133776;27;20502;-52
2022/03/11 05:36:38;;;;;;;0.20;0.20;;;;;;;-2.17;46.61;96059.06;5134191;27;20486;-52
2022/03/11 05:39:06;;;;;;;0.20;0.20;;;;;;;-2.60;47.29;96065.66;5133880;27;20458;-52
2022/03/11 05:41:34;;;;;;;0.20;0.20;;;;;;;-2.71;46.68;96069.41;5134057;27;20867;-52
2022/03/11 05:44:03;;;;;;;0.20;0.20;;;;;;;-2.54;47.07;96061.56;5133504;27;20931;-52
2022/03/11 05:46:31;;;;;;;0.20;0.20;;;;;;;-2.59;45.65;95971.25;5133719;27;20451;-52
2022/03/11 05:49:00;;;;;;;0.20;0.17;;;;;;;-2.34;46.43;96065.34;5133649;27;20748;-52
2022/03/11 05:51:28;;;;;;;0.20;0.13;;;;;;;-2.13;46.44;96060.34;5133177;27;20471;-51
2022/03/11 05:53:58;;;;;;;0.30;0.20;;;;;;;-2.36;47.02;96057.75;5133621;27;20451;-53
2022/03/11 05:56:26;;;;;;;0.20;0.20;;;;;;;-2.97;47.52;96055.09;5133470;27;20522;-51
2022/03/11 05:58:55;;;;;;;0.20;0.17;;;;;;;-2.87;47.77;96053.94;5133568;27;20553;-52
2022/03/11 06:01:23;;;;;;;0.20;0.20;;;;;;;-2.30;47.87;96051.06;5132520;27;20454;-52
2022/03/11 06:03:52;;;;;;;0.20;0.20;;;;;;;-1.83;46.50;96059.50;5133458;27;20441;-53
2022/03/11 06:06:20;;;;;;;0.40;0.40;;;;;;;-1.75;46.50;96059.44;5133178;27;20430;-52
2022/03/11 06:08:48;;;;;;;0.20;0.20;;;;;;;-2.33;46.23;96061.78;5133569;27;20994;-53
2022/03/11 06:11:24;;;;;;;0.30;0.30;;;;;;;-1.53;45.38;96057.75;5133392;27;20430;-53
2022/03/11 06:13:52;;;;;;;0.20;0.10;;;;;;;-0.77;43.60;96047.84;5133061;27;20453;-53
2022/03/11 06:16:21;;;;;;;0.77;0.77;;;;;;;-0.58;43.24;96045.69;5133343;27;20426;-53
2022/03/11 06:18:49;;;;;;;1.07;1.07;;;;;;;-0.43;42.66;96049.84;5133571;27;20453;-53
2022/03/11 06:21:18;;;;;;;0.20;0.20;;;;;;;0.41;41.44;96043.06;5133347;27;20561;-58
2022/03/11 06:23:46;;;;;;;0.20;0.20;;;;;;;-0.71;40.49;95802.47;5133511;27;20446;-57
2022/03/11 06:26:15;;;;;;;0.20;0.20;;;;;;;0.23;40.61;96040.91;5132795;27;20467;-59
2022/03/11 06:28:45;;;;;;;0.20;0.20;;;;;;;0.84;40.19;96047.19;5133185;27;20956;-59
2022/03/11 06:31:13;;;;;;;0.70;0.40;;;;;;;-0.20;40.55;95966.34;5133485;27;20450;-58
2022/03/11 06:33:41;;;;;;;0.20;0.20;;;;;;;0.88;39.81;96043.22;5133489;27;20852;-58
2022/03/11 06:36:10;;;;;;;0.20;0.20;;;;;;;0.68;39.50;96024.03;5132912;27;20487;-57
2022/03/11 06:38:38;;;;;;;0.20;0.20;;;;;;;1.24;37.83;96049.03;5133119;27;20534;-54
2022/03/11 06:41:07;;;;;;;0.30;0.20;;;;;;;2.17;37.17;96050.97;5133137;27;20479;-54
2022/03/11 06:43:35;;;;;;;1.43;1.43;;;;;;;2.06;36.53;96033.22;5132965;27;20464;-57
2022/03/11 06:46:05;;;;;;;4.30;0.43;;;;;;;2.00;36.72;96047.09;5133203;27;20458;-57
2022/03/11 06:48:34;;;;;;;0.53;0.53;;;;;;;2.90;34.48;96020.34;5133042;27;20473;-57
2022/03/11 06:51:04;;;;;;;0.73;0.40;;;;;;;4.22;34.15;96022.22;5132904;27;20419;-57
2022/03/11 06:53:33;;;;;;;0.80;0.80;;;;;;;4.31;33.66;96034.06;5132804;27;20433;-56
2022/03/11 06:56:02;;;;;;;1.33;1.23;;;;;;;4.03;33.39;96036.25;5133027;27;20427;-56
2022/03/11 06:58:30;;;;;;;4.00;0.90;;;;;;;3.91;33.58;96032.69;5133112;27;20497;-56
2022/03/11 07:00:59;;;;;;;1.40;1.40;;;;;;;4.41;34.43;96034.38;5133055;27;20465;-56
2022/03/11 07:03:28;;;;;;;0.30;0.20;;;;;;;3.97;34.33;96020.56;5132875;27;20942;-56
2022/03/11 07:05:57;;;;;;;0.40;0.40;;;;;;;4.85;33.91;96030.00;5132987;27;20774;-55
2022/03/11 07:08:25;;;;;;;0.50;0.50;;;;;;;5.45;32.02;96025.75;5132533;27;20474;-55
2022/03/11 07:10:54;;;;;;;0.30;0.20;;;;;;;5.91;30.84;96026.03;5132732;27;20479;-54
2022/03/11 07:13:22;;;;;;;3.33;1.13;;;;;;;6.27;29.83;96025.91;5132614;28;20932;-54
2022/03/11 07:15:51;;;;;;;0.90;0.90;;;;;;;4.48;32.36;95829.59;5132330;28;20422;-53
2022/03/11 07:18:19;;;;;;;0.30;0.30;;;;;;;6.19;31.04;96001.75;5132464;28;20462;-53
2022/03/11 07:20:49;;;;;;;0.30;0.20;;;;;;;5.98;30.75;96026.72;5132476;28;20918;-53
2022/03/11 07:23:27;;;;;;;0.30;0.20;;;;;;;6.15;32.32;96013.72;5133361;27;20434;-53
2022/03/11 07:25:56;;;;;;;0.57;0.57;;;;;;;6.43;30.17;96021.03;5136668;27;20430;-53
2022/03/11 07:28:27;;;;;;;0.30;0.30;;;;;;;7.72;31.19;96005.72;5136579;27;20418;-53
2022/03/11 07:30:55;;;;;;;0.30;0.20;;;;;;;6.76;30.83;96013.41;5136627;27;20510;-53
2022/03/11 07:33:24;;;;;;;0.80;0.33;;;;;;;6.11;30.53;96015.22;5136598;27;20513;-53
2022/03/11 07:35:54;;;;;;;0.40;0.37;;;;;;;6.60;30.17;96004.38;5136692;27;20454;-54
2022/03/11 07:38:24;;;;;;;0.40;0.30;;;;;;;6.88;31.83;96003.69;5135790;27;20497;-53
2022/03/11 07:40:52;;;;;;;0.57;0.57;;;;;;;5.59;28.68;96004.31;5136641;27;20842;-54
2022/03/11 07:43:21;;;;;;;0.30;0.20;;;;;;;6.11;29.52;96016.03;5136744;27;20479;-54
2022/03/11 07:45:49;;;;;;;0.50;0.50;;;;;;;7.22;29.06;96002.84;5136365;27;20450;-54
2022/03/11 07:48:18;;;;;;;0.30;0.20;;;;;;;7.10;27.95;95996.00;5136388;27;20454;-54
2022/03/11 07:50:47;;;;;;;0.40;0.30;;;;;;;7.97;27.56;95997.53;5135688;27;20422;-54
2022/03/11 07:53:17;;;;;;;1.63;0.93;;;;;;;8.12;26.53;95992.50;5136353;27;20457;-55
2022/03/11 07:55:45;;;;;;;0.30;0.20;;;;;;;7.54;27.54;96000.59;5136151;27;20462;-55
2022/03/11 07:58:13;;;;;;;0.37;0.30;;;;;;;8.24;27.40;96003.81;5137749;27;20519;-56
2022/03/11 08:00:42;;;;;;;0.50;0.50;;;;;;;8.44;26.40;95993.63;5136509;27;20484;-56
2022/03/11 08:03:10;;;;;;;0.40;0.40;;;;;;;9.04;29.07;95998.25;5135800;27;20422;-57
2022/03/11 08:05:39;;;;;;;0.40;0.40;;;;;;;7.40;26.22;95989.53;5136379;27;20856;-57
2022/03/11 08:08:07;;;;;;;0.30;0.20;;;;;;;7.80;26.84;95996.63;5135949;27;20478;-57
2022/03/11 08:10:37;;;;;;;0.40;0.30;;;;;;;6.22;27.75;95964.44;5136221;27;20433;-57
2022/03/11 08:13:26;;;;;;;0.40;0.30;;;;;;;5.86;28.44;95996.94;5135793;27;20525;-57
2022/03/11 08:15:55;;;;;;;1.90;0.73;;;;;;;6.23;28.01;96005.53;5134965;27;20452;-57
2022/03/11 08:18:24;;;;;;;7.20;0.50;;;;;;;6.67;28.60;95985.81;5135844;27;20998;-57
2022/03/11 08:20:52;;;;;;;1.87;0.60;;;;;;;7.01;27.99;96000.81;5136053;27;20426;-58
2022/03/11 08:23:21;;;;;;;0.40;0.30;;;;;;;7.24;27.17;95986.78;5136306;27;20414;-59
2022/03/11 08:25:51;;;;;;;0.40;0.30;;;;;;;8.93;27.00;95984.06;5135505;27;20466;-60
2022/03/11 08:28:21;;;;;;;0.30;0.20;;;;;;;9.37;25.54;95977.81;5135735;27;20907;-61
2022/03/11 08:30:50;;;;;;;0.40;0.30;;;;;;;9.93;23.44;95934.28;5136087;27;20519;-61
2022/03/11 08:33:22;;;;;;;0.40;0.30;;;;;;;9.68;23.48;95992.25;5135953;27;20446;-62
2022/03/11 08:36:10;;;;;;;1.33;1.33;;;;;;;9.63;23.16;95988.72;5134355;27;20845;-63
2022/03/11 08:38:40;;;;;;;0.50;0.50;;;;;;;9.63;26.03;95917.28;5135860;27;20466;-64
2022/03/11 08:41:10;;;;;;;0.40;0.30;;;;;;;9.54;24.71;95996.28;5135705;27;20434;-64
2022/03/11 08:43:41;;;;;;;0.30;0.30;;;;;;;11.19;22.97;95985.69;5135618;27;20419;-65
2022/03/11 08:46:11;;;;;;;1.17;0.37;;;;;;;10.06;21.51;95994.00;5135538;27;20484;-66
2022/03/11 08:48:41;;;;;;;0.40;0.30;;;;;;;9.81;22.63;95952.16;5135407;27;20938;-65
2022/03/11 08:51:09;;;;;;;1.53;0.70;;;;;;;11.10;21.82;95989.88;5135637;27;20802;-65
2022/03/11 08:53:38;;;;;;;0.47;0.40;;;;;;;10.12;22.42;95982.41;5135631;27;20430;-65
2022/03/11 08:56:07;;;;;;;0.40;0.40;;;;;;;9.90;22.88;95989.56;5135007;27;20458;-65
2022/03/11 08:58:37;;;;;;;0.40;0.30;;;;;;;8.85;24.37;95897.28;5136986;27;20516;-65
2022/03/11 09:01:05;;;;;;;0.40;0.30;;;;;;;8.53;22.67;95986.91;5136786;27;20441;-65
2022/03/11 09:03:34;;;;;;;0.40;0.30;;;;;;;8.57;22.66;95984.59;5137898;27;20426;-65
2022/03/11 09:06:05;;;;;;;0.30;0.20;;;;;;;8.86;22.41;95988.72;5138586;27;20418;-65
2022/03/11 09:08:34;;;;;;;0.77;0.30;;;;;;;9.27;21.04;95982.19;5137511;27;20477;-65
2022/03/11 09:11:05;;;;;;;1.60;0.47;;;;;;;10.82;21.56;96000.81;5135659;27;20423;-63
2022/03/11 09:13:36;;;;;;;0.50;0.50;;;;;;;12.38;19.15;95968.88;5138536;27;20519;-62
2022/03/11 09:16:05;;;;;;;0.40;0.30;;;;;;;10.69;19.46;95974.72;5137379;27;20488;-63
2022/03/11 09:18:34;;;;;;;0.87;0.63;;;;;;;11.28;20.20;95968.22;5135076;27;20511;-62
2022/03/11 09:21:04;;;;;;;0.30;0.20;;;;;;;12.11;19.05;95953.16;5136562;27;20427;-61
2022/03/11 09:23:33;;;;;;;0.60;0.60;;;;;;;9.17;21.18;95730.81;5135299;27;20437;-62
2022/03/11 09:26:02;;;;;;;0.60;0.60;;;;;;;11.32;20.21;95968.50;5136594;27;20423;-61
2022/03/11 09:28:31;;;;;;;1.47;1.37;;;;;;;10.17;20.59;95975.31;5138752;27;20837;-63
2022/03/11 09:31:03;;;;;;;0.70;0.70;;;;;;;11.14;20.15;95969.72;5136569;27;20435;-62
2022/03/11 09:33:33;;;;;;;0.40;0.30;;;;;;;13.19;19.50;95959.03;5138137;27;20435;-63
2022/03/11 09:36:02;;;;;;;0.40;0.30;;;;;;;12.49;24.30;95955.34;5138690;27;20447;-61
2022/03/11 09:38:30;;;;;;;0.30;0.30;;;;;;;11.43;18.78;95766.56;5136449;27;20473;-63
2022/03/11 09:41:02;;;;;;;0.30;0.20;;;;;;;12.23;18.36;95945.75;5137633;27;20458;-62
2022/03/11 09:43:31;;;;;;;0.30;0.30;;;;;;;12.94;18.73;95919.94;5137055;27;20814;-62
2022/03/11 09:46:02;;;;;;;0.50;0.40;;;;;;;11.26;18.33;95956.25;5136681;27;20450;-62
2022/03/11 09:48:32;;;;;;;2.10;2.00;;;;;;;11.46;17.65;95946.53;5134339;27;20513;-61
2022/03/11 09:51:02;;;;;;;0.30;0.20;;;;;;;10.70;19.40;95921.44;5135720;27;20426;-61
2022/03/11 09:53:36;;;;;;;0.33;0.30;;;;;;;7.58;20.77;95973.56;5136045;27;20426;-61
2022/03/11 09:56:06;;;;;;;0.63;0.50;;;;;;;10.53;21.45;95951.78;5135305;27;20465;-61
2022/03/11 09:58:35;;;;;;;0.30;0.30;;;;;;;11.63;22.87;95956.19;5134037;27;20584;-60
2022/03/11 10:01:06;;;;;;;0.40;0.37;;;;;;;12.69;18.90;95943.91;5136397;27;20430;-61
2022/03/11 10:03:37;;;;;;;0.67;0.67;;;;;;;12.84;17.89;95943.91;5137160;27;20429;-61
2022/03/11 10:06:08;;;;;;;0.40;0.40;;;;;;;12.63;19.58;95940.44;5138113;27;20462;-63
2022/03/11 10:08:38;;;;;;;0.40;0.40;;;;;;;11.57;19.42;95951.88;5135839;27;20563;-61
2022/03/11 10:11:23;;;;;;;0.40;0.33;;;;;;;10.18;20.15;95946.97;5133691;27;20422;-63
2022/03/11 10:13:53;;;;;;;3.93;0.33;;;;;;;9.12;21.93;95958.16;5135501;27;20458;-63
2022/03/11 10:16:25;;;;;;;0.37;0.30;;;;;;;8.99;20.72;95947.94;5134312;27;20466;-66
2022/03/11 10:18:57;;;;;;;0.50;0.50;;;;;;;8.67;21.00;95948.56;5150840;27;20503;-73
2022/03/11 10:21:34;;;;;;;4.20;0.93;;;;;;;9.85;19.99;95944.50;5137191;27;20435;-65
2022/03/11 10:24:05;;;;;;;0.37;0.30;;;;;;;11.52;18.67;95943.91;5137675;27;20505;-71
2022/03/11 10:26:37;;;;;;;0.70;0.70;;;;;;;11.70;18.10;95930.19;5136029;27;20426;-65
2022/03/11 10:29:11;;;;;;;4.83;1.27;;;;;;;10.23;19.86;95915.25;5134254;27;20910;-66
2022/03/11 10:31:43;;;;;;;0.50;0.47;;;;;;;9.57;19.24;95736.47;5133852;27;20936;-64
2022/03/11 10:34:14;;;;;;;6.63;2.30;;;;;;;9.57;19.24;95925.16;5133602;27;20423;-65
2022/03/11 10:36:54;;;;;;;0.97;0.97;;;;;;;9.55;19.61;95929.09;5132403;27;20502;-65
2022/03/11 10:39:26;;;;;;;0.40;0.40;;;;;;;10.44;20.25;95929.47;5134555;27;20586;-69
2022/03/11 10:42:16;;;;;;;0.60;0.60;;;;;;;10.30;20.69;95926.44;5135701;27;20427;-65
2022/03/11 10:44:56;;;;;;;0.50;0.50;;;;;;;9.79;20.58;95924.34;5133284;27;20438;-61
2022/03/11 10:47:30;;;;;;;0.60;0.60;;;;;;;8.04;20.69;95909.22;5136777;27;20933;-61
2022/03/11 10:50:01;;;;;;;0.40;0.40;;;;;;;7.77;21.40;95896.88;5133192;27;20426;-59
2022/03/11 10:52:31;;;;;;;0.77;0.77;;;;;;;7.67;22.77;95900.91;5132466;27;20431;-58
2022/03/11 10:55:02;;;;;;;0.30;0.20;;;;;;;8.91;22.26;95912.94;5133137;27;20514;-58
2022/03/11 10:57:36;;;;;;;0.40;0.30;;;;;;;9.60;18.97;95910.63;5133058;27;20418;-60
2022/03/11 11:00:19;;;;;;;0.30;0.20;;;;;;;12.06;18.16;95898.16;5131234;27;20505;-64
2022/03/11 11:02:52;;;;;;;0.87;0.87;;;;;;;13.86;18.28;95883.94;5134206;27;20489;-66
2022/03/11 11:05:22;;;;;;;0.40;0.30;;;;;;;13.17;16.74;95884.78;5136760;27;20856;-71
2022/03/11 11:07:52;;;;;;;2.00;0.50;;;;;;;12.60;17.00;95865.72;5134155;27;20470;-66
2022/03/11 11:10:23;;;;;;;0.60;0.60;;;;;;;12.86;17.03;95869.13;5133347;27;20473;-64
2022/03/11 11:13:11;;;;;;;0.40;0.30;;;;;;;14.48;15.61;95848.56;5132778;27;20431;-63
2022/03/11 11:15:41;;;;;;;0.30;0.30;;;;;;;15.27;17.00;95843.50;5136528;28;20426;-62
2022/03/11 11:18:14;;;;;;;0.40;0.30;;;;;;;12.90;17.32;95867.53;5134987;28;20417;-65
2022/03/11 11:20:48;;;;;;;0.60;0.60;;;;;;;13.04;18.98;95879.19;5132915;28;20582;-63
2022/03/11 11:23:17;;;;;;;0.40;0.40;;;;;;;13.75;17.71;95867.22;5133817;27;20448;-64
2022/03/11 11:25:52;;;;;;;0.30;0.20;;;;;;;12.29;18.84;95864.97;5135672;28;20502;-64
2022/03/11 11:28:23;;;;;;;1.90;1.17;;;;;;;12.14;19.33;95864.94;5136880;28;20473;-63
2022/03/11 11:30:54;;;;;;;0.50;0.50;;;;;;;12.14;19.61;95862.28;5136236;28;20491;-66
2022/03/11 11:33:25;;;;;;;0.50;0.50;;;;;;;10.23;19.25;95853.50;5139123;27;20422;-69
2022/03/11 11:36:01;;;;;;;0.47;0.30;;;;;;;9.46;20.64;95872.38;5136439;27;20423;-62
2022/03/11 11:38:35;;;;;;;0.30;0.30;;;;;;;7.59;22.49;95845.06;5135473;28;20422;-62
2022/03/11 11:41:25;;;;;;;0.70;0.70;;;;;;;7.97;24.10;95862.91;5134984;27;20478;-60
2022/03/11 11:43:54;;;;;;;0.70;0.70;;;;;;;8.58;22.14;95856.72;5135599;28;20500;-60
2022/03/11 11:46:23;;;;;;;0.40;0.30;;;;;;;6.79;22.73;95781.91;5132346;28;20458;-59
2022/03/11 11:49:16;;;;;;;1.13;1.13;;;;;;;7.32;23.94;95876.50;5132654;27;20426;-58